createdAt,value
2023-02-19T00:04:44.237Z,4.70
2023-02-19T00:07:15.888Z,5.03
2023-02-19T00:09:47.551Z,5.20
2023-02-19T00:12:19.200Z,4.83
2023-02-19T00:14:50.929Z,5.07
2023-02-19T00:17:22.598Z,6.23
2023-02-19T00:19:55.622Z,5.80
2023-02-19T00:22:27.263Z,6.43
2023-02-19T00:24:58.936Z,6.57
2023-02-19T00:27:30.581Z,6.30
2023-02-19T00:30:02.392Z,6.10
2023-02-19T00:32:34.131Z,5.47
2023-02-19T00:35:07.527Z,5.40
2023-02-19T00:37:39.162Z,5.23
2023-02-19T00:40:11.262Z,5.07
2023-02-19T00:42:42.921Z,5.40
2023-02-19T00:45:14.618Z,5.30
2023-02-19T00:47:46.254Z,5.00
2023-02-19T00:50:19.289Z,5.23
2023-02-19T00:52:50.954Z,5.50
2023-02-19T00:55:22.617Z,5.70
2023-02-19T00:57:54.256Z,5.90
2023-02-19T01:00:25.931Z,5.23
2023-02-19T01:02:57.559Z,5.70
2023-02-19T01:05:30.564Z,5.60
2023-02-19T01:08:02.203Z,6.17
2023-02-19T01:10:33.943Z,5.33
2023-02-19T01:13:05.607Z,4.77
2023-02-19T01:15:37.287Z,5.50
2023-02-19T01:18:09.002Z,4.77
2023-02-19T01:20:42.810Z,4.93
2023-02-19T01:23:14.466Z,5.40
2023-02-19T01:25:46.139Z,4.90
2023-02-19T01:28:17.793Z,4.80
2023-02-19T01:30:49.474Z,4.90
2023-02-19T01:33:21.127Z,5.40
2023-02-19T01:35:54.164Z,5.17
2023-02-19T01:38:25.857Z,5.10
2023-02-19T01:40:57.930Z,4.50
2023-02-19T01:43:30.493Z,4.60
2023-02-19T01:46:02.142Z,4.77
2023-02-19T01:48:35.322Z,4.93
2023-02-19T01:51:11.154Z,4.37
2023-02-19T01:53:44.434Z,4.87
2023-02-19T01:56:16.242Z,5.17
2023-02-19T01:58:47.967Z,4.30
2023-02-19T02:01:19.619Z,4.67
2023-02-19T02:03:51.305Z,4.50
2023-02-19T02:06:24.841Z,4.70
2023-02-19T02:08:57.172Z,4.77
2023-02-19T02:11:28.809Z,4.87
2023-02-19T02:14:00.508Z,5.47
2023-02-19T02:16:35.110Z,5.23
2023-02-19T02:19:14.129Z,5.57
2023-02-19T02:21:58.538Z,5.53
2023-02-19T02:24:57.095Z,5.53
2023-02-19T02:27:36.677Z,5.10
2023-02-19T02:30:29.584Z,5.30
2023-02-19T02:33:04.638Z,5.90
2023-02-19T02:35:41.291Z,5.50
2023-02-19T02:38:13.051Z,5.23
2023-02-19T02:40:44.758Z,6.00
2023-02-19T02:43:16.412Z,6.57
2023-02-19T02:45:49.469Z,6.00
2023-02-19T02:48:27.697Z,5.60
2023-02-19T02:51:01.297Z,5.70
2023-02-19T02:53:34.666Z,6.53
2023-02-19T02:56:06.463Z,5.87
2023-02-19T02:58:38.205Z,5.93
2023-02-19T03:01:12.154Z,5.70
2023-02-19T03:03:44.643Z,6.97
2023-02-19T03:06:17.186Z,5.70
2023-02-19T03:08:50.924Z,6.13
2023-02-19T03:11:22.600Z,6.35
2023-02-19T03:13:56.694Z,6.53
2023-02-19T03:16:30.842Z,8.03
2023-02-19T03:19:02.540Z,6.57
2023-02-19T03:21:34.334Z,7.27
2023-02-19T03:24:06.456Z,6.40
2023-02-19T03:26:38.093Z,6.77
2023-02-19T03:29:09.826Z,7.23
2023-02-19T03:31:42.932Z,7.10
2023-02-19T03:34:16.188Z,6.93
2023-02-19T03:36:50.824Z,7.50
2023-02-19T03:39:22.775Z,7.77
2023-02-19T03:41:58.581Z,8.20
2023-02-19T03:44:36.035Z,7.40
2023-02-19T03:47:12.374Z,7.90
2023-02-19T03:49:47.913Z,7.93
2023-02-19T03:52:22.809Z,7.73
2023-02-19T03:54:57.083Z,7.63
2023-02-19T03:57:31.357Z,7.40
2023-02-19T04:00:04.892Z,7.53
2023-02-19T04:02:39.413Z,7.60
2023-02-19T04:05:14.224Z,7.43
2023-02-19T04:07:46.802Z,8.25
2023-02-19T04:10:18.671Z,8.50
2023-02-19T04:12:53.044Z,7.80
2023-02-19T04:15:26.705Z,8.80
2023-02-19T04:18:00.770Z,8.57
2023-02-19T04:20:34.987Z,8.40
2023-02-19T04:23:06.870Z,8.53
2023-02-19T04:25:38.955Z,9.23
2023-02-19T04:28:10.595Z,9.37
2023-02-19T04:30:42.400Z,9.93
2023-02-19T04:33:15.447Z,9.67
2023-02-19T04:35:47.123Z,10.07
2023-02-19T04:38:18.780Z,10.37
2023-02-19T04:40:50.479Z,9.83
2023-02-19T04:43:22.133Z,10.17
2023-02-19T04:45:53.834Z,10.73
2023-02-19T04:48:26.863Z,11.03
2023-02-19T04:50:58.548Z,12.10
2023-02-19T04:53:30.190Z,9.90
2023-02-19T04:56:06.446Z,12.17
2023-02-19T04:58:38.243Z,10.90
2023-02-19T05:01:10.540Z,11.50
2023-02-19T05:03:43.862Z,11.97
2023-02-19T05:06:15.529Z,12.47
2023-02-19T05:08:47.194Z,11.67
2023-02-19T05:11:18.897Z,12.33
2023-02-19T05:13:50.593Z,13.57
2023-02-19T05:16:22.227Z,12.20
2023-02-19T05:18:55.233Z,11.97
2023-02-19T05:21:26.931Z,12.97
2023-02-19T05:23:58.618Z,13.93
2023-02-19T05:26:30.380Z,12.90
2023-02-19T05:29:02.052Z,14.17
2023-02-19T05:31:33.808Z,12.77
2023-02-19T05:34:06.902Z,12.33
2023-02-19T05:36:41.814Z,12.70
2023-02-19T05:39:13.482Z,12.43
2023-02-19T05:41:45.132Z,12.63
2023-02-19T05:44:16.793Z,13.97
2023-02-19T05:46:48.456Z,13.13
2023-02-19T05:49:21.458Z,13.80
2023-02-19T05:51:53.121Z,13.67
2023-02-19T05:54:24.823Z,13.73
2023-02-19T05:56:56.505Z,16.27
2023-02-19T05:59:28.199Z,16.83
2023-02-19T06:01:59.865Z,17.10
2023-02-19T06:04:32.878Z,17.37
2023-02-19T06:07:04.563Z,18.63
2023-02-19T06:09:36.216Z,19.23
2023-02-19T06:12:08.012Z,18.27
2023-02-19T06:14:39.683Z,17.07
2023-02-19T06:17:11.388Z,16.70
2023-02-19T06:19:44.413Z,16.27
2023-02-19T06:22:16.299Z,15.90
2023-02-19T06:24:48.055Z,13.37
2023-02-19T06:27:19.716Z,14.67
2023-02-19T06:29:51.391Z,14.17
2023-02-19T06:32:23.158Z,15.07
2023-02-19T06:34:56.278Z,14.17
2023-02-19T06:37:27.939Z,13.57
2023-02-19T06:39:59.610Z,12.93
2023-02-19T06:42:31.778Z,12.37
2023-02-19T06:45:03.532Z,13.37
2023-02-19T06:47:35.182Z,13.20
2023-02-19T06:50:08.440Z,12.53
2023-02-19T06:52:40.104Z,13.43
2023-02-19T06:55:11.762Z,13.37
2023-02-19T06:57:43.425Z,12.70
2023-02-19T07:00:15.798Z,12.27
2023-02-19T07:02:47.444Z,12.87
2023-02-19T07:05:20.466Z,12.57
2023-02-19T07:07:52.144Z,12.50
2023-02-19T07:10:23.816Z,11.97
2023-02-19T07:12:55.452Z,12.00
2023-02-19T07:15:27.105Z,11.03
2023-02-19T07:17:59.310Z,10.30
2023-02-19T07:20:32.353Z,10.53
2023-02-19T07:23:04.009Z,10.80
2023-02-19T07:25:37.206Z,10.53
2023-02-19T07:28:08.882Z,10.43
2023-02-19T07:30:40.645Z,11.00
2023-02-19T07:33:12.294Z,10.43
2023-02-19T07:35:46.962Z,10.20
2023-02-19T07:38:19.166Z,10.20
2023-02-19T07:40:51.369Z,9.90
2023-02-19T07:43:24.283Z,9.77
2023-02-19T07:45:56.076Z,10.93
2023-02-19T07:48:27.760Z,10.63
2023-02-19T07:51:01.257Z,10.30
2023-02-19T07:53:33.582Z,11.63
2023-02-19T07:56:06.718Z,12.23
2023-02-19T07:58:38.603Z,11.30
2023-02-19T08:01:11.283Z,10.80
2023-02-19T08:03:43.381Z,10.73
2023-02-19T08:06:16.426Z,10.30
2023-02-19T08:08:48.099Z,9.70
2023-02-19T08:11:19.747Z,10.07
2023-02-19T08:13:52.014Z,8.93
2023-02-19T08:16:36.755Z,9.97
2023-02-19T08:19:12.719Z,10.73
2023-02-19T08:21:45.716Z,10.73
2023-02-19T08:24:17.422Z,11.67
2023-02-19T08:26:49.115Z,11.70
2023-02-19T08:29:20.873Z,12.53
2023-02-19T08:31:52.531Z,11.80
2023-02-19T08:34:24.193Z,11.10
2023-02-19T08:36:57.188Z,10.17
2023-02-19T08:39:28.842Z,10.33
2023-02-19T08:42:00.481Z,10.07
2023-02-19T08:44:32.636Z,9.13
2023-02-19T08:47:04.314Z,9.27
2023-02-19T08:49:35.970Z,8.70
2023-02-19T08:52:08.967Z,8.80
2023-02-19T08:54:40.637Z,7.57
2023-02-19T08:57:12.278Z,8.53
2023-02-19T08:59:43.927Z,8.57
2023-02-19T09:02:15.585Z,8.70
2023-02-19T09:04:47.274Z,8.43
2023-02-19T09:07:20.282Z,8.03
2023-02-19T09:09:52.351Z,7.63
2023-02-19T09:12:24.167Z,6.43
2023-02-19T09:14:55.834Z,6.97
2023-02-19T09:17:27.497Z,6.60
2023-02-19T09:19:59.158Z,6.90
2023-02-19T09:22:32.147Z,7.00
2023-02-19T09:25:04.126Z,6.90
2023-02-19T09:27:35.781Z,6.10
2023-02-19T09:30:08.247Z,5.73
2023-02-19T09:32:39.933Z,5.77
2023-02-19T09:35:11.587Z,5.73
2023-02-19T09:37:44.593Z,6.07
2023-02-19T09:40:16.486Z,5.43
2023-02-19T09:42:48.235Z,5.33
2023-02-19T09:45:21.979Z,5.33
2023-02-19T09:47:53.934Z,5.43
2023-02-19T09:50:30.270Z,5.13
2023-02-19T09:53:04.509Z,5.77
2023-02-19T09:55:36.632Z,5.30
2023-02-19T09:58:18.889Z,5.57
2023-02-19T10:00:50.553Z,6.00
2023-02-19T10:03:23.541Z,5.17
2023-02-19T10:05:55.204Z,5.80
2023-02-19T10:08:31.114Z,5.57
2023-02-19T10:11:03.128Z,5.87
2023-02-19T10:13:35.558Z,6.13
2023-02-19T10:16:07.440Z,5.40
2023-02-19T10:18:40.167Z,6.00
2023-02-19T10:21:14.284Z,5.93
2023-02-19T10:23:47.464Z,5.90
2023-02-19T10:26:19.495Z,5.82
2023-02-19T10:28:51.369Z,6.13
2023-02-19T10:31:23.953Z,6.40
2023-02-19T10:33:56.518Z,6.00
2023-02-19T10:36:31.432Z,5.43
2023-02-19T10:39:08.123Z,5.60
2023-02-19T10:41:41.991Z,5.90
2023-02-19T10:44:15.781Z,6.60
2023-02-19T10:46:48.217Z,5.43
2023-02-19T10:49:22.680Z,5.70
2023-02-19T10:51:54.499Z,6.03
2023-02-19T10:54:28.296Z,5.93
2023-02-19T10:57:24.615Z,6.23
2023-02-19T10:59:57.323Z,6.27
2023-02-19T11:02:29.343Z,5.87
2023-02-19T11:05:06.725Z,5.33
2023-02-19T11:07:39.155Z,5.33
2023-02-19T11:10:20.674Z,5.70
2023-02-19T11:12:53.270Z,5.47
2023-02-19T11:15:27.557Z,5.22
2023-02-19T11:18:02.025Z,5.03
2023-02-19T11:20:33.681Z,4.97
2023-02-19T11:23:15.076Z,5.00
2023-02-19T11:25:48.143Z,4.63
2023-02-19T11:28:30.837Z,5.23
2023-02-19T11:31:29.836Z,5.40
2023-02-19T11:34:01.961Z,5.60
2023-02-19T11:36:34.133Z,5.23
2023-02-19T11:39:20.560Z,4.73
2023-02-19T11:42:17.822Z,5.10
2023-02-19T11:44:56.360Z,4.87
2023-02-19T11:47:51.421Z,4.53
2023-02-19T11:50:25.003Z,5.05
2023-02-19T11:53:03.848Z,4.70
2023-02-19T11:55:42.456Z,5.03
2023-02-19T11:58:41.058Z,4.35
2023-02-19T12:01:16.541Z,4.57
2023-02-19T12:03:56.602Z,4.63
2023-02-19T12:06:29.778Z,5.18
2023-02-19T12:09:10.141Z,4.78
2023-02-19T12:12:00.459Z,4.57
2023-02-19T12:14:47.405Z,4.68
2023-02-19T12:17:27.279Z,5.38
2023-02-19T12:20:03.238Z,4.80
2023-02-19T12:22:37.496Z,5.30
2023-02-19T12:25:35.288Z,5.35
2023-02-19T12:28:28.915Z,5.53
2023-02-19T12:31:18.916Z,5.82
2023-02-19T12:34:17.642Z,4.78
2023-02-19T12:36:54.569Z,4.20
2023-02-19T12:39:29.887Z,3.67
2023-02-19T12:42:04.619Z,3.25
2023-02-19T12:44:39.062Z,3.28
2023-02-19T12:47:17.685Z,3.85
2023-02-19T12:49:50.596Z,2.72
2023-02-19T12:52:23.945Z,2.70
2023-02-19T12:54:57.756Z,2.70
2023-02-19T12:57:31.378Z,2.92
2023-02-19T13:00:04.714Z,2.85
2023-02-19T13:02:40.593Z,2.60
2023-02-19T13:05:15.295Z,3.03
2023-02-19T13:07:50.978Z,3.10
2023-02-19T13:10:26.350Z,3.50
2023-02-19T13:13:00.167Z,3.10
2023-02-19T13:15:33.638Z,3.30
2023-02-19T13:18:10.480Z,4.32
2023-02-19T13:20:42.694Z,4.37
2023-02-19T13:23:16.508Z,4.50
2023-02-19T13:26:03.523Z,4.40
2023-02-19T13:28:43.504Z,4.15
2023-02-19T13:31:34.023Z,4.00
2023-02-19T13:34:12.573Z,3.57
2023-02-19T13:36:44.211Z,3.20
2023-02-19T13:41:53.481Z,3.03
2023-02-19T13:44:26.970Z,3.20
2023-02-19T13:46:58.728Z,2.53
2023-02-19T13:49:41.417Z,2.80
2023-02-19T13:52:33.464Z,2.77
2023-02-19T13:55:42.587Z,2.50
2023-02-19T13:58:59.685Z,3.00
2023-02-19T14:02:11.013Z,3.43
2023-02-19T14:04:51.449Z,3.50
2023-02-19T14:07:51.660Z,4.27
2023-02-19T14:10:56.574Z,3.80
2023-02-19T14:14:04.985Z,4.23
2023-02-19T14:16:55.402Z,4.77
2023-02-19T14:19:47.199Z,4.03
2023-02-19T14:23:04.669Z,4.80
2023-02-19T14:25:57.260Z,5.13
2023-02-19T14:28:41.041Z,5.23
2023-02-19T14:31:27.699Z,4.93
2023-02-19T14:34:00.125Z,5.30
2023-02-19T14:36:37.789Z,5.53
2023-02-19T14:39:12.526Z,5.77
2023-02-19T14:41:47.458Z,5.83
2023-02-19T14:44:20.916Z,6.53
2023-02-19T14:46:56.249Z,6.57
2023-02-19T14:49:29.976Z,6.40
2023-02-19T14:52:03.767Z,7.37
2023-02-19T14:54:39.738Z,7.43
2023-02-19T14:57:15.514Z,7.50
2023-02-19T14:59:54.257Z,7.47
2023-02-19T15:02:26.224Z,8.77
2023-02-19T15:04:58.058Z,8.50
2023-02-19T15:07:31.399Z,8.60
2023-02-19T15:10:04.920Z,8.77
2023-02-19T15:12:42.179Z,9.50
2023-02-19T15:15:16.939Z,9.00
2023-02-19T15:17:48.583Z,9.33
2023-02-19T15:20:22.734Z,8.47
2023-02-19T15:22:54.371Z,8.63
2023-02-19T15:25:30.261Z,7.87
2023-02-19T15:28:21.804Z,8.87
2023-02-19T15:31:04.416Z,8.10
2023-02-19T15:33:36.068Z,8.13
2023-02-19T15:36:08.710Z,7.87
2023-02-19T15:38:40.370Z,8.30
2023-02-19T15:41:16.828Z,8.70
2023-02-19T15:43:51.406Z,8.30
2023-02-19T15:46:24.208Z,8.63
2023-02-19T15:48:59.845Z,9.33
2023-02-19T15:51:34.661Z,9.13
2023-02-19T15:54:08.784Z,8.93
2023-02-19T15:56:41.444Z,9.13
2023-02-19T15:59:19.813Z,7.87
2023-02-19T16:01:51.481Z,8.37
2023-02-19T16:04:23.158Z,8.37
2023-02-19T16:06:56.213Z,8.83
2023-02-19T16:09:29.086Z,7.73
2023-02-19T16:12:00.885Z,9.03
2023-02-19T16:14:34.349Z,7.97
2023-02-19T16:17:14.507Z,8.10
2023-02-19T16:19:47.074Z,8.23
2023-02-19T16:22:20.169Z,7.80
2023-02-19T16:24:52.740Z,8.47
2023-02-19T16:27:28.966Z,7.33
2023-02-19T16:30:03.398Z,7.30
2023-02-19T16:32:35.085Z,7.60
2023-02-19T16:35:36.670Z,7.93
2023-02-19T16:38:12.257Z,8.00
2023-02-19T16:41:06.114Z,7.73
2023-02-19T16:43:41.382Z,8.03
2023-02-19T16:46:14.394Z,8.30
2023-02-19T16:48:46.124Z,8.77
2023-02-19T16:51:24.769Z,8.50
2023-02-19T16:53:56.430Z,9.43
2023-02-19T16:56:28.105Z,9.10
2023-02-19T16:58:59.765Z,8.93
2023-02-19T17:01:32.812Z,9.83
2023-02-19T17:04:05.530Z,9.53
2023-02-19T17:06:37.409Z,9.03
2023-02-19T17:09:09.233Z,9.57
2023-02-19T17:11:40.877Z,10.43
2023-02-19T17:14:12.573Z,10.60
2023-02-19T17:16:45.723Z,10.73
2023-02-19T17:19:18.221Z,10.77
2023-02-19T17:21:49.857Z,11.77
2023-02-19T17:24:21.522Z,11.17
2023-02-19T17:26:53.165Z,10.80
2023-02-19T17:29:24.821Z,11.10
2023-02-19T17:31:57.889Z,10.10
2023-02-19T17:34:29.594Z,9.87
2023-02-19T17:37:01.247Z,9.07
2023-02-19T17:39:32.919Z,7.50
2023-02-19T17:42:04.655Z,6.60
2023-02-19T17:44:36.364Z,5.87
2023-02-19T17:47:09.347Z,4.30
2023-02-19T17:49:41.022Z,4.20
2023-02-19T17:52:12.700Z,4.10
2023-02-19T17:54:44.386Z,3.67
2023-02-19T17:57:16.043Z,3.20
2023-02-19T17:59:47.901Z,2.80
2023-02-19T18:02:20.892Z,2.60
2023-02-19T18:04:52.578Z,2.50
2023-02-19T18:07:24.250Z,2.70
2023-02-19T18:09:55.916Z,2.47
2023-02-19T18:12:27.584Z,2.70
2023-02-19T18:14:59.329Z,2.10
2023-02-19T18:17:32.341Z,2.40
2023-02-19T18:20:04.969Z,1.87
2023-02-19T18:22:36.706Z,1.87
2023-02-19T18:25:08.562Z,1.80
2023-02-19T18:27:40.233Z,1.77
2023-02-19T18:30:12.508Z,1.87
2023-02-19T18:32:45.643Z,1.80
2023-02-19T18:35:18.018Z,1.90
2023-02-19T18:37:50.458Z,1.70
2023-02-19T18:40:22.542Z,1.80
2023-02-19T18:42:54.238Z,1.90
2023-02-19T18:45:25.926Z,1.90
2023-02-19T18:47:58.988Z,1.53
2023-02-19T18:50:30.638Z,1.67
2023-02-19T18:53:02.288Z,1.70
2023-02-19T18:55:33.960Z,2.23
2023-02-19T18:58:05.918Z,1.90
2023-02-19T19:00:37.631Z,1.90
2023-02-19T19:03:10.640Z,1.93
2023-02-19T19:05:42.293Z,2.30
2023-02-19T19:08:13.939Z,2.13
2023-02-19T19:10:45.626Z,2.27
2023-02-19T19:13:17.336Z,1.90
2023-02-19T19:15:50.006Z,2.17
2023-02-19T19:18:23.023Z,2.30
2023-02-19T19:20:54.690Z,1.80
2023-02-19T19:23:26.356Z,1.80
2023-02-19T19:25:58.015Z,2.10
2023-02-19T19:28:30.900Z,1.80
2023-02-19T19:31:02.607Z,1.87
2023-02-19T19:33:35.634Z,2.17
2023-02-19T19:36:08.060Z,2.30
2023-02-19T19:38:39.715Z,3.00
2023-02-19T19:41:14.164Z,2.50
2023-02-19T19:43:45.893Z,2.47
2023-02-19T19:46:17.656Z,2.20
2023-02-19T19:48:50.777Z,2.50
2023-02-19T19:51:22.468Z,2.40
2023-02-19T19:53:54.122Z,2.37
2023-02-19T19:56:25.820Z,2.53
2023-02-19T19:58:57.521Z,2.40
2023-02-19T20:01:29.194Z,2.53
2023-02-19T20:04:02.254Z,2.47
2023-02-19T20:06:33.906Z,2.60
2023-02-19T20:09:05.562Z,2.50
2023-02-19T20:11:43.734Z,2.30
2023-02-19T20:14:15.477Z,2.60
2023-02-19T20:16:47.186Z,2.00
2023-02-19T20:19:20.262Z,2.37
2023-02-19T20:21:52.953Z,2.00
2023-02-19T20:24:25.801Z,2.23
2023-02-19T20:26:59.314Z,2.27
2023-02-19T20:29:31.975Z,2.83
2023-02-19T20:32:03.980Z,2.93
2023-02-19T20:34:37.083Z,3.00
2023-02-19T20:37:08.723Z,3.07
2023-02-19T20:39:40.379Z,3.47
2023-02-19T20:42:16.769Z,4.03
2023-02-19T20:44:48.576Z,4.00
2023-02-19T20:47:20.215Z,4.10
2023-02-19T20:49:53.207Z,3.47
2023-02-19T20:52:24.839Z,3.80
2023-02-19T20:54:56.642Z,3.30
2023-02-19T20:57:28.271Z,3.60
2023-02-19T20:59:59.941Z,2.67
2023-02-19T21:02:31.593Z,2.50
2023-02-19T21:05:04.958Z,2.50
2023-02-19T21:07:36.589Z,2.60
2023-02-19T21:10:09.508Z,2.13
2023-02-19T21:12:41.149Z,2.17
2023-02-19T21:15:12.806Z,2.50
2023-02-19T21:17:44.954Z,2.17
2023-02-19T21:20:18.384Z,2.47
2023-02-19T21:22:50.027Z,2.40
2023-02-19T21:25:21.675Z,2.50
2023-02-19T21:27:53.308Z,2.40
2023-02-19T21:30:25.023Z,2.73
2023-02-19T21:32:56.687Z,2.83
2023-02-19T21:35:29.716Z,3.03
2023-02-19T21:38:01.374Z,2.80
2023-02-19T21:40:33.037Z,2.90
2023-02-19T21:43:04.672Z,3.10
2023-02-19T21:45:36.353Z,3.20
2023-02-19T21:48:08.498Z,3.00
2023-02-19T21:50:41.557Z,3.13
2023-02-19T21:53:13.220Z,2.77
2023-02-19T21:55:56.630Z,2.97
2023-02-19T21:58:30.164Z,3.17
2023-02-19T22:01:01.995Z,3.03
2023-02-19T22:03:33.683Z,3.37
2023-02-19T22:06:07.283Z,3.43
2023-02-19T22:08:38.930Z,2.93
2023-02-19T22:11:10.660Z,3.23
2023-02-19T22:13:42.338Z,2.93
2023-02-19T22:16:14.471Z,3.60
2023-02-19T22:18:46.855Z,3.90
2023-02-19T22:21:20.064Z,3.73
2023-02-19T22:23:52.233Z,4.20
2023-02-19T22:26:24.875Z,4.40
2023-02-19T22:28:56.541Z,4.23
2023-02-19T22:31:28.298Z,4.53
2023-02-19T22:34:00.133Z,4.93
2023-02-19T22:36:33.555Z,4.70
2023-02-19T22:39:05.791Z,4.40
2023-02-19T22:41:41.656Z,4.57
2023-02-19T22:44:13.316Z,4.80
2023-02-19T22:46:48.901Z,5.10
2023-02-19T22:49:20.996Z,5.10
2023-02-19T22:51:54.981Z,5.47
2023-02-19T22:54:26.738Z,6.00
2023-02-19T22:56:58.429Z,5.47
2023-02-19T22:59:30.254Z,6.83
